createdAt,value
2019-03-18T00:01:44.238Z,11.42
2019-03-18T00:04:15.500Z,11.32
2019-03-18T00:06:46.136Z,11.08
2019-03-18T00:09:18.523Z,11.22
2019-03-18T00:12:09.471Z,11.48
2019-03-18T00:14:42.439Z,11.30
2019-03-18T00:17:12.637Z,10.66
2019-03-18T00:19:44.537Z,11.12
2019-03-18T00:22:15.332Z,10.23
2019-03-18T00:24:48.145Z,11.02
2019-03-18T00:27:19.903Z,10.95
2019-03-18T00:29:52.330Z,11.22
2019-03-18T00:32:23.217Z,11.00
2019-03-18T00:34:54.717Z,10.51
2019-03-18T00:37:25.199Z,10.99
2019-03-18T00:39:58.468Z,11.12
2019-03-18T00:42:29.541Z,10.88
2019-03-18T00:45:00.379Z,10.72
2019-03-18T00:47:33.238Z,10.15
2019-03-18T00:50:05.410Z,10.65
2019-03-18T00:52:35.643Z,9.23
2019-03-18T00:55:08.421Z,10.14
2019-03-18T00:57:40.036Z,9.82
2019-03-18T01:00:14.039Z,9.50
2019-03-18T01:02:44.797Z,9.44
2019-03-18T01:05:16.046Z,10.28
2019-03-18T01:07:48.828Z,9.80
2019-03-18T01:10:20.710Z,10.51
2019-03-18T01:12:52.247Z,10.42
2019-03-18T01:15:28.261Z,9.91
2019-03-18T01:17:56.431Z,9.61
2019-03-18T01:20:27.210Z,10.02
2019-03-18T01:22:57.666Z,10.00
2019-03-18T01:25:30.254Z,10.67
2019-03-18T01:28:02.684Z,10.86
2019-03-18T01:30:35.788Z,10.74
2019-03-18T01:33:09.525Z,10.72
2019-03-18T01:35:45.158Z,10.23
2019-03-18T01:38:17.015Z,9.95
2019-03-18T01:40:50.785Z,10.33
2019-03-18T01:43:21.272Z,10.42
2019-03-18T01:45:52.321Z,10.35
2019-03-18T01:48:22.803Z,10.27
2019-03-18T01:50:56.928Z,10.76
2019-03-18T01:53:28.373Z,10.47
2019-03-18T01:56:01.434Z,10.54
2019-03-18T01:58:32.681Z,9.97
2019-03-18T02:01:05.450Z,10.44
2019-03-18T02:03:38.381Z,10.74
2019-03-18T02:06:11.371Z,9.80
2019-03-18T02:08:41.525Z,9.15
2019-03-18T02:11:13.928Z,9.74
2019-03-18T02:13:46.403Z,10.26
2019-03-18T02:16:17.921Z,9.51
2019-03-18T02:18:49.962Z,10.35
2019-03-18T02:21:21.034Z,10.28
2019-03-18T02:23:51.948Z,10.23
2019-03-18T02:26:23.137Z,10.71
2019-03-18T02:28:54.000Z,10.84
2019-03-18T02:31:25.368Z,10.78
2019-03-18T02:33:55.894Z,11.01
2019-03-18T02:49:34.086Z,10.83
2019-03-18T03:10:07.434Z,9.87
2019-03-18T03:12:39.938Z,9.52
2019-03-18T03:15:12.056Z,9.75
2019-03-18T03:17:43.722Z,9.95
2019-03-18T03:20:15.924Z,10.52
2019-03-18T03:22:48.932Z,10.64
2019-03-18T03:25:25.340Z,10.74
2019-03-18T03:27:57.530Z,10.65
2019-03-18T03:30:28.797Z,10.83
2019-03-18T03:32:59.196Z,10.81
2019-03-18T03:35:33.424Z,10.89
2019-03-18T03:38:07.633Z,10.31
2019-03-18T03:40:39.236Z,9.69
2019-03-18T03:43:13.514Z,9.98
2019-03-18T03:45:44.506Z,9.84
2019-03-18T03:48:16.267Z,10.22
2019-03-18T03:50:49.599Z,9.59
2019-03-18T03:53:24.264Z,10.23
2019-03-18T03:55:55.344Z,9.58
2019-03-18T03:58:30.545Z,10.57
2019-03-18T04:01:01.381Z,11.00
2019-03-18T04:03:38.560Z,10.21
2019-03-18T04:06:08.384Z,10.56
2019-03-18T04:08:39.801Z,10.42
2019-03-18T04:11:16.625Z,10.60
2019-03-18T04:13:47.519Z,10.78
2019-03-18T04:16:24.693Z,10.62
2019-03-18T04:18:55.389Z,10.60
2019-03-18T04:21:25.640Z,10.48
2019-03-18T04:23:56.751Z,10.94
2019-03-18T04:26:30.608Z,10.53
2019-03-18T04:29:01.214Z,10.53
2019-03-18T04:31:32.768Z,10.62
2019-03-18T04:34:03.632Z,11.27
2019-03-18T04:36:43.097Z,11.23
2019-03-18T04:39:15.266Z,10.99
2019-03-18T04:41:48.663Z,11.45
2019-03-18T04:44:21.265Z,11.32
2019-03-18T04:46:51.854Z,11.52
2019-03-18T04:49:25.657Z,11.53
2019-03-18T04:51:55.938Z,11.85
2019-03-18T04:54:26.828Z,11.95
2019-03-18T04:56:59.791Z,11.88
2019-03-18T04:59:30.314Z,11.99
2019-03-18T05:02:18.103Z,12.13
2019-03-18T05:04:49.972Z,12.02
2019-03-18T05:07:48.408Z,12.03
2019-03-18T05:10:47.144Z,12.10
2019-03-18T05:13:26.421Z,12.33
2019-03-18T05:16:00.122Z,12.23
2019-03-18T05:18:59.518Z,11.87
2019-03-18T05:21:35.047Z,11.73
2019-03-18T05:24:13.175Z,11.75
2019-03-18T05:26:43.910Z,11.90
2019-03-18T05:29:15.418Z,11.41
2019-03-18T05:31:46.541Z,11.35
2019-03-18T05:34:17.821Z,11.35
2019-03-18T05:36:54.019Z,10.60
2019-03-18T05:39:25.478Z,11.06
2019-03-18T05:41:55.745Z,10.56
2019-03-18T05:44:27.128Z,11.15
2019-03-18T05:46:57.370Z,11.38
2019-03-18T05:49:28.427Z,11.46
2019-03-18T05:52:06.548Z,11.32
2019-03-18T05:54:51.772Z,11.20
2019-03-18T05:57:53.154Z,11.48
2019-03-18T06:00:26.873Z,11.59
2019-03-18T06:02:58.496Z,11.24
2019-03-18T06:05:31.069Z,11.65
2019-03-18T06:08:01.235Z,11.31
2019-03-18T06:10:31.493Z,11.72
2019-03-18T06:13:02.868Z,11.64
2019-03-18T06:15:33.985Z,11.42
2019-03-18T06:18:24.834Z,11.55
2019-03-18T06:21:06.221Z,11.90
2019-03-18T06:23:51.259Z,11.52
2019-03-18T06:26:23.826Z,11.63
2019-03-18T06:28:55.630Z,11.46
2019-03-18T06:31:27.098Z,11.42
2019-03-18T06:33:58.910Z,11.57
2019-03-18T06:36:31.301Z,11.41
2019-03-18T06:39:06.390Z,11.48
2019-03-18T06:41:37.579Z,12.02
2019-03-18T06:44:08.516Z,11.98
2019-03-18T06:46:39.620Z,11.50
2019-03-18T06:49:17.806Z,11.61
2019-03-18T06:51:48.414Z,11.14
2019-03-18T06:54:19.664Z,11.64
2019-03-18T06:56:52.571Z,12.02
2019-03-18T06:59:25.124Z,11.81
2019-03-18T07:01:55.678Z,12.05
2019-03-18T07:04:39.779Z,12.11
2019-03-18T07:07:10.581Z,11.60
2019-03-18T07:09:44.686Z,10.99
2019-03-18T07:12:16.245Z,11.60
2019-03-18T07:14:46.989Z,11.58
2019-03-18T07:17:18.424Z,11.78
2019-03-18T07:19:49.912Z,12.15
2019-03-18T07:22:21.909Z,12.35
2019-03-18T07:25:03.489Z,12.75
2019-03-18T07:27:35.243Z,12.30
2019-03-18T07:30:06.437Z,12.33
2019-03-18T07:32:37.210Z,12.06
2019-03-18T07:35:11.806Z,12.25
2019-03-18T07:37:45.509Z,12.21
2019-03-18T07:40:17.988Z,12.16
2019-03-18T07:42:49.531Z,12.35
2019-03-18T07:45:21.462Z,12.41
2019-03-18T07:47:53.691Z,12.51
2019-03-18T07:50:25.762Z,12.37
2019-03-18T07:52:56.706Z,12.11
2019-03-18T07:55:28.285Z,12.08
2019-03-18T07:58:03.389Z,12.50
2019-03-18T08:00:39.335Z,13.09
2019-03-18T08:03:10.585Z,12.63
2019-03-18T08:05:42.073Z,12.89
2019-03-18T08:08:15.301Z,12.83
2019-03-18T08:10:45.683Z,12.92
2019-03-18T08:13:15.847Z,12.95
2019-03-18T08:15:46.795Z,12.76
2019-03-18T08:18:18.247Z,13.09
2019-03-18T08:20:53.344Z,13.22
2019-03-18T08:23:23.697Z,13.30
2019-03-18T08:25:53.982Z,13.07
2019-03-18T08:28:25.812Z,13.11
2019-03-18T08:30:56.032Z,12.84
2019-03-18T08:33:27.934Z,13.40
2019-03-18T08:36:01.202Z,13.52
2019-03-18T08:38:32.259Z,13.29
2019-03-18T08:41:02.829Z,13.65
2019-03-18T08:43:35.098Z,13.75
2019-03-18T08:46:08.022Z,13.78
2019-03-18T08:48:38.519Z,13.43
2019-03-18T08:51:11.544Z,13.83
2019-03-18T08:53:43.758Z,13.79
2019-03-18T08:56:14.694Z,13.78
2019-03-18T08:58:45.681Z,13.61
2019-03-18T09:01:16.548Z,13.46
2019-03-18T09:03:46.802Z,13.70
2019-03-18T09:06:17.513Z,13.52
2019-03-18T09:08:48.698Z,13.60
2019-03-18T09:11:19.132Z,13.14
2019-03-18T09:13:50.171Z,13.54
2019-03-18T09:16:22.790Z,13.67
2019-03-18T09:18:54.608Z,13.87
2019-03-18T09:21:30.497Z,13.92
2019-03-18T09:24:03.842Z,14.25
2019-03-18T09:26:35.991Z,13.84
2019-03-18T09:29:07.078Z,14.06
2019-03-18T09:31:41.573Z,14.58
2019-03-18T09:34:17.136Z,14.50
2019-03-18T09:36:52.323Z,14.80
2019-03-18T09:39:26.513Z,14.41
2019-03-18T09:41:59.188Z,14.88
2019-03-18T09:44:31.253Z,15.01
2019-03-18T09:47:04.625Z,14.96
2019-03-18T09:49:35.573Z,15.50
2019-03-18T09:52:06.496Z,15.67
2019-03-18T09:54:37.387Z,14.78
2019-03-18T09:57:10.152Z,15.50
2019-03-18T09:59:43.242Z,15.54
2019-03-18T10:02:15.062Z,15.68
2019-03-18T10:04:47.186Z,15.74
2019-03-18T10:07:19.982Z,15.71
2019-03-18T10:09:51.728Z,15.64
2019-03-18T10:12:23.487Z,14.86
2019-03-18T10:14:55.485Z,15.10
2019-03-18T10:17:25.704Z,14.42
2019-03-18T10:19:57.525Z,14.82
2019-03-18T10:22:28.166Z,15.49
2019-03-18T10:24:59.687Z,15.71
2019-03-18T10:27:30.985Z,15.64
2019-03-18T10:30:04.345Z,15.42
2019-03-18T10:32:34.942Z,15.46
2019-03-18T10:35:11.794Z,14.98
2019-03-18T10:37:42.285Z,15.28
2019-03-18T10:40:17.243Z,15.45
2019-03-18T10:42:50.172Z,15.77
2019-03-18T10:45:25.940Z,14.96
2019-03-18T10:47:57.540Z,15.70
2019-03-18T10:50:28.145Z,16.04
2019-03-18T10:53:05.914Z,16.41
2019-03-18T10:55:37.091Z,16.45
2019-03-18T10:58:07.152Z,16.24
2019-03-18T11:00:40.243Z,16.34
2019-03-18T11:03:11.429Z,16.03
2019-03-18T11:05:41.971Z,16.18
2019-03-18T11:08:13.377Z,16.50
2019-03-18T11:10:46.436Z,16.71
2019-03-18T11:13:18.580Z,16.60
2019-03-18T11:15:51.368Z,16.94
2019-03-18T11:18:21.521Z,16.83
2019-03-18T11:20:52.799Z,16.30
2019-03-18T11:23:24.838Z,16.82
2019-03-18T11:25:56.224Z,16.94
2019-03-18T11:28:31.645Z,16.99
2019-03-18T11:31:02.326Z,16.65
2019-03-18T11:33:35.175Z,15.82
2019-03-18T11:36:07.875Z,15.89
2019-03-18T11:39:47.829Z,15.82
2019-03-18T11:42:38.256Z,16.16
2019-03-18T11:45:10.201Z,15.86
2019-03-18T11:47:41.190Z,15.06
2019-03-18T11:50:13.397Z,14.93
2019-03-18T11:52:44.251Z,14.67
2019-03-18T11:55:16.081Z,15.01
2019-03-18T11:57:49.432Z,14.50
2019-03-18T12:00:20.535Z,13.98
2019-03-18T12:02:52.148Z,14.35
2019-03-18T12:05:26.374Z,14.83
2019-03-18T12:08:00.461Z,14.55
2019-03-18T12:10:35.851Z,15.07
2019-03-18T12:13:07.151Z,15.12
2019-03-18T12:15:37.367Z,15.46
2019-03-18T12:18:08.724Z,14.57
2019-03-18T12:20:41.317Z,14.35
2019-03-18T12:23:15.293Z,14.95
2019-03-18T12:25:48.435Z,15.72
2019-03-18T12:28:20.264Z,16.02
2019-03-18T12:30:51.207Z,16.48
2019-03-18T12:33:23.122Z,16.94
2019-03-18T12:35:53.295Z,17.05
2019-03-18T12:38:25.362Z,18.31
2019-03-18T12:40:57.815Z,19.59
2019-03-18T12:43:37.071Z,20.59
2019-03-18T12:46:07.364Z,21.11
2019-03-18T12:48:37.821Z,22.65
2019-03-18T12:51:08.441Z,23.82
2019-03-18T12:53:39.180Z,25.46
2019-03-18T12:56:09.350Z,26.58
2019-03-18T12:58:41.795Z,28.42
2019-03-18T13:01:12.945Z,28.54
2019-03-18T13:03:48.389Z,29.08
2019-03-18T13:06:21.325Z,29.53
2019-03-18T13:08:53.639Z,30.64
2019-03-18T13:11:25.285Z,30.54
2019-03-18T13:13:58.451Z,32.11
2019-03-18T13:16:28.798Z,32.43
2019-03-18T13:18:59.419Z,33.11
2019-03-18T13:21:30.937Z,33.28
2019-03-18T13:24:01.593Z,33.90
2019-03-18T13:26:32.139Z,34.51
2019-03-18T13:29:03.290Z,33.92
2019-03-18T13:31:34.838Z,32.01
2019-03-18T13:34:06.231Z,29.55
2019-03-18T13:36:36.734Z,27.53
2019-03-18T13:39:09.196Z,25.90
2019-03-18T13:41:42.067Z,24.60
2019-03-18T13:44:13.262Z,22.93
2019-03-18T13:46:43.450Z,22.10
2019-03-18T13:49:15.990Z,20.59
2019-03-18T13:51:47.081Z,20.35
2019-03-18T13:54:19.847Z,19.23
2019-03-18T13:56:53.382Z,18.97
2019-03-18T13:59:28.621Z,17.77
2019-03-18T14:02:00.066Z,17.00
2019-03-18T14:04:38.022Z,16.26
2019-03-18T14:07:09.698Z,15.57
2019-03-18T14:09:42.538Z,15.45
2019-03-18T14:12:38.175Z,14.78
2019-03-18T14:15:14.306Z,15.35
2019-03-18T14:17:45.588Z,15.59
2019-03-18T14:20:21.492Z,15.55
2019-03-18T14:22:52.002Z,15.70
2019-03-18T14:25:23.076Z,16.01
2019-03-18T14:27:55.991Z,16.07
2019-03-18T14:30:32.832Z,15.88
2019-03-18T14:33:05.477Z,16.16
2019-03-18T14:35:41.045Z,16.96
2019-03-18T14:38:11.233Z,17.35
2019-03-18T14:40:46.015Z,16.96
2019-03-18T14:43:16.991Z,16.31
2019-03-18T14:45:52.253Z,17.39
2019-03-18T14:48:26.158Z,17.46
2019-03-18T14:50:59.217Z,16.96
2019-03-18T14:53:30.561Z,18.52
2019-03-18T14:56:02.703Z,20.32
2019-03-18T14:58:35.528Z,22.68
2019-03-18T15:01:08.952Z,22.23
2019-03-18T15:03:39.533Z,22.21
2019-03-18T15:06:14.478Z,21.71
2019-03-18T15:08:46.685Z,20.17
2019-03-18T15:11:19.163Z,19.65
2019-03-18T15:13:51.412Z,19.65
2019-03-18T15:16:22.890Z,18.74
2019-03-18T15:18:56.120Z,18.61
2019-03-18T15:21:26.970Z,17.88
2019-03-18T15:23:58.193Z,18.37
2019-03-18T15:26:29.738Z,18.06
2019-03-18T15:29:02.474Z,18.20
2019-03-18T15:31:35.563Z,18.39
2019-03-18T15:34:06.072Z,17.51
2019-03-18T15:36:43.075Z,17.00
2019-03-18T15:39:13.682Z,17.70
2019-03-18T15:41:44.298Z,17.40
2019-03-18T15:44:14.754Z,17.52
2019-03-18T15:46:49.556Z,17.35
2019-03-18T15:49:22.159Z,16.89
2019-03-18T15:51:52.478Z,16.89
2019-03-18T15:54:23.640Z,16.86
2019-03-18T15:56:55.239Z,16.63
2019-03-18T15:59:28.253Z,16.93
2019-03-18T16:01:59.734Z,16.69
2019-03-18T16:04:34.418Z,16.94
2019-03-18T16:07:10.086Z,17.07
2019-03-18T16:09:44.081Z,16.07
2019-03-18T16:12:18.495Z,16.22
2019-03-18T16:14:53.870Z,16.33
2019-03-18T16:17:28.488Z,16.80
2019-03-18T16:20:06.726Z,16.99
2019-03-18T16:22:41.025Z,16.22
2019-03-18T16:25:18.541Z,15.95
2019-03-18T16:27:50.843Z,16.09
2019-03-18T16:30:21.463Z,15.98
2019-03-18T16:32:58.463Z,15.78
2019-03-18T16:35:31.024Z,15.84
2019-03-18T16:38:03.422Z,15.70
2019-03-18T16:40:37.108Z,15.75
2019-03-18T16:43:10.587Z,15.36
2019-03-18T16:45:45.595Z,16.07
2019-03-18T16:48:21.101Z,16.13
2019-03-18T16:50:57.796Z,16.14
2019-03-18T16:53:28.385Z,15.24
2019-03-18T16:56:02.597Z,15.72
2019-03-18T16:58:32.869Z,15.54
2019-03-18T17:01:03.481Z,15.37
2019-03-18T17:03:43.558Z,15.63
2019-03-18T17:06:14.745Z,15.82
2019-03-18T17:08:46.288Z,15.95
2019-03-18T17:11:20.347Z,15.95
2019-03-18T17:13:51.084Z,16.19
2019-03-18T17:16:22.096Z,16.07
2019-03-18T17:18:54.861Z,15.54
2019-03-18T17:21:26.959Z,15.78
2019-03-18T17:23:57.262Z,15.48
2019-03-18T17:26:28.191Z,15.69
2019-03-18T17:29:07.142Z,15.75
2019-03-18T17:32:14.733Z,15.45
2019-03-18T17:34:46.901Z,15.23
2019-03-18T17:37:20.006Z,15.53
2019-03-18T17:39:52.410Z,15.33
2019-03-18T17:42:23.000Z,14.84
2019-03-18T17:44:53.252Z,15.10
2019-03-18T17:47:24.382Z,15.06
2019-03-18T17:49:56.299Z,15.29
2019-03-18T17:52:27.379Z,15.02
2019-03-18T17:55:01.078Z,14.95
2019-03-18T17:57:36.423Z,14.96
2019-03-18T18:00:13.417Z,14.78
2019-03-18T18:02:56.122Z,14.75
2019-03-18T18:05:27.999Z,14.77
2019-03-18T18:08:00.621Z,14.67
2019-03-18T18:10:35.989Z,14.44
2019-03-18T18:15:56.816Z,14.91
2019-03-18T18:18:28.850Z,14.72
2019-03-18T18:20:59.402Z,14.31
2019-03-18T18:23:29.941Z,14.79
2019-03-18T18:26:00.904Z,14.80
2019-03-18T18:28:31.620Z,14.96
2019-03-18T18:31:02.058Z,14.58
2019-03-18T18:33:32.211Z,14.86
2019-03-18T18:36:05.101Z,14.65
2019-03-18T18:38:35.669Z,14.38
2019-03-18T18:41:07.274Z,14.59
2019-03-18T18:43:37.443Z,14.66
2019-03-18T18:46:11.035Z,14.63
2019-03-18T18:48:45.111Z,14.88
2019-03-18T18:51:16.966Z,14.98
2019-03-18T18:54:32.601Z,15.04
2019-03-18T18:57:15.794Z,14.91
2019-03-18T18:59:48.723Z,14.99
2019-03-18T19:02:27.242Z,15.03
2019-03-18T19:05:02.099Z,14.64
2019-03-18T19:07:34.755Z,14.82
2019-03-18T19:10:05.621Z,14.90
2019-03-18T19:12:40.838Z,14.94
2019-03-18T19:15:21.625Z,14.97
2019-03-18T19:17:55.241Z,14.93
2019-03-18T19:20:28.092Z,14.80
2019-03-18T19:23:00.120Z,14.79
2019-03-18T19:25:33.129Z,14.84
2019-03-18T19:28:03.360Z,14.80
2019-03-18T19:30:37.207Z,14.79
2019-03-18T19:33:08.020Z,14.82
2019-03-18T19:35:39.915Z,14.77
2019-03-18T19:38:13.806Z,14.69
2019-03-18T19:40:46.595Z,14.81
2019-03-18T19:43:18.577Z,14.82
2019-03-18T19:45:49.870Z,14.56
2019-03-18T19:48:20.747Z,14.50
2019-03-18T19:50:52.562Z,14.41
2019-03-18T19:53:24.743Z,14.47
2019-03-18T19:55:55.258Z,14.48
2019-03-18T19:58:31.877Z,14.50
2019-03-18T20:01:11.552Z,14.55
2019-03-18T20:03:41.915Z,14.50
2019-03-18T20:06:14.510Z,14.35
2019-03-18T20:08:54.009Z,14.35
2019-03-18T20:11:24.911Z,14.11
2019-03-18T20:13:58.376Z,14.18
2019-03-18T20:16:32.004Z,14.16
2019-03-18T20:19:03.946Z,13.90
2019-03-18T20:21:34.550Z,13.99
2019-03-18T20:24:06.308Z,14.14
2019-03-18T20:26:41.325Z,14.14
2019-03-18T20:29:15.976Z,14.08
2019-03-18T20:31:49.121Z,13.96
2019-03-18T20:34:21.370Z,14.05
2019-03-18T20:36:54.032Z,14.06
2019-03-18T20:39:27.214Z,14.12
2019-03-18T20:42:00.248Z,13.98
2019-03-18T20:44:32.205Z,14.00
2019-03-18T20:47:04.862Z,13.80
2019-03-18T20:49:36.877Z,13.77
2019-03-18T20:52:16.686Z,13.80
2019-03-18T20:54:43.008Z,13.72
2019-03-18T20:57:14.983Z,13.72
2019-03-18T20:59:45.548Z,13.74
2019-03-18T21:02:17.696Z,13.75
2019-03-18T21:04:49.011Z,13.68
2019-03-18T21:07:19.608Z,13.40
2019-03-18T21:09:54.715Z,13.40
2019-03-18T21:12:28.380Z,13.47
2019-03-18T21:15:01.763Z,13.49
2019-03-18T21:17:36.077Z,13.55
2019-03-18T21:20:09.765Z,13.55
2019-03-18T21:22:41.135Z,13.66
2019-03-18T21:25:14.327Z,13.60
2019-03-18T21:27:46.545Z,13.42
2019-03-18T21:30:16.822Z,13.34
2019-03-18T21:32:48.091Z,13.05
2019-03-18T21:35:19.356Z,13.22
2019-03-18T21:37:51.863Z,13.15
2019-03-18T21:40:22.853Z,13.15
2019-03-18T21:42:55.757Z,13.03
2019-03-18T21:45:26.935Z,13.16
2019-03-18T21:47:59.794Z,13.26
2019-03-18T21:50:32.394Z,13.42
2019-03-18T21:53:08.001Z,13.31
2019-03-18T21:55:47.182Z,13.14
2019-03-18T21:58:21.429Z,13.29
2019-03-18T22:01:18.239Z,13.32
2019-03-18T22:03:51.386Z,13.43
2019-03-18T22:06:33.079Z,13.37
2019-03-18T22:09:11.519Z,13.44
2019-03-18T22:11:48.988Z,13.23
2019-03-18T22:14:25.892Z,13.37
2019-03-18T22:24:27.281Z,13.35
2019-03-18T22:27:05.533Z,13.38
2019-03-18T22:29:41.568Z,13.31
2019-03-18T22:32:24.928Z,13.32
2019-03-18T22:35:04.465Z,13.25
2019-03-18T22:37:49.478Z,13.28
2019-03-18T22:40:34.656Z,13.10
2019-03-18T22:44:01.924Z,13.15
2019-03-18T22:46:39.241Z,13.02
2019-03-18T22:49:37.163Z,12.98
2019-03-18T22:52:35.907Z,12.89
2019-03-18T22:56:10.799Z,13.08
2019-03-18T23:02:10.928Z,12.89
2019-03-18T23:05:22.223Z,12.97
2019-03-18T23:08:11.490Z,12.97
2019-03-18T23:10:44.832Z,12.83
2019-03-18T23:13:22.392Z,12.97
2019-03-18T23:16:15.963Z,12.95
2019-03-18T23:18:57.585Z,13.03
2019-03-18T23:21:37.320Z,12.98
2019-03-18T23:24:20.218Z,12.84
2019-03-18T23:26:51.757Z,12.85
2019-03-18T23:29:22.368Z,12.90
2019-03-18T23:31:54.858Z,12.85
2019-03-18T23:34:25.039Z,12.55
2019-03-18T23:37:00.424Z,12.61
2019-03-18T23:39:32.522Z,12.56
2019-03-18T23:42:05.138Z,12.42
2019-03-18T23:44:36.563Z,12.44
2019-03-18T23:47:07.552Z,12.60
2019-03-18T23:49:38.147Z,12.47
2019-03-18T23:52:11.139Z,12.49
2019-03-18T23:54:42.826Z,12.46
2019-03-18T23:57:14.477Z,12.55
2019-03-18T23:59:46.176Z,12.63
